Estació municipal de Seva (Osona, P.N. del Montseny)

Consulta les dades en temps real de l'estació municipal de Seva





Hora UTC 03:05
Temperatura 16.1 ºC
Sòl 15 cm 13.6 ºC
Humitat 73.2 %
Pressió 1021.3 hPa
Pluja 0.0 mm
Velocitat vent 2.8 km/h
Direcció vent NE
Radiació solar 0.1 W/m²

Webcam

Dades diàries 2026-08-31



Hora UTC (hivern +1h; estiu +2h)
Temperatura (ºC) Humitat (%) Pressió (hPa) Velocitat vent (km/h) Precipitació (mm) Radiació solar (W/m²)
Hora UTC Aire Sòl 15 cm Humitat Pressió Vel. Dir. Vel. Max Dir. Intent. màx 5 min. Rad. Sol.
00:05 17.4 15.1 63.0 1021.3 2.5 E 2.5 ENE 0.0 0.0
00:10 17.2 14.9 65.2 1021.3 2.7 ESE 3.9 ESE 0.0 0.0
00:15 17.1 14.9 65.1 1021.2 1.6 E 3.2 ESE 0.0 0.0
00:20 17.0 14.8 67.3 1021.2 3.2 E 4.2 E 0.0 0.1
00:25 17.0 14.8 67.0 1021.2 3.0 E 4.6 ESE 0.0 0.0
00:30 17.0 14.9 68.0 1021.3 3.5 ESE 4.6 E 0.0 0.0
00:35 16.9 14.7 67.1 1021.2 3.0 E 3.9 ESE 0.0 0.1
00:40 16.8 14.7 69.3 1021.2 3.0 ENE 4.6 ENE 0.0 0.1
00:45 17.0 14.7 69.8 1021.2 2.1 E 3.9 ENE 0.0 0.0
00:50 16.9 14.7 69.4 1021.2 4.0 ENE 5.6 E 0.0 0.0
00:55 16.7 14.6 69.7 1021.2 3.6 E 4.6 E 0.0 0.1
01:00 16.5 14.5 70.6 1021.3 2.7 ESE 4.9 E 0.0 0.1
01:05 16.4 14.3 71.4 1021.3 3.6 ESE 4.6 ESE 0.0 0.1
01:10 16.4 14.3 71.9 1021.3 2.8 ESE 3.9 ESE 0.0 0.0
01:15 16.3 14.3 72.4 1021.3 3.4 E 4.9 E 0.0 0.0
01:20 16.3 14.4 72.3 1021.3 3.9 E 4.9 E 0.0 0.1
01:25 16.1 14.2 73.2 1021.2 3.5 ESE 4.8 E 0.0 0.1
01:30 16.2 14.2 74.1 1021.2 2.8 ESE 3.9 ESE 0.0 0.1
01:35 16.2 14.3 73.5 1021.2 3.0 ESE 4.2 ESE 0.0 0.1
01:40 16.2 14.2 73.7 1021.2 3.4 E 4.2 E 0.0 0.1
01:45 16.2 14.2 73.2 1021.2 4.4 ENE 5.3 ENE 0.0 0.1
01:50 16.1 14.2 73.1 1021.2 3.9 E 4.9 E 0.0 0.0
01:55 16.1 14.2 73.6 1021.2 3.1 SE 4.9 E 0.0 0.1
02:00 16.2 14.1 72.5 1021.2 0.7 ESE 3.2 SE 0.0 0.0
02:05 16.1 14.1 71.5 1021.2 4.0 ENE 7.1 ENE 0.0 0.1
02:10 16.0 14.1 72.0 1021.2 3.2 E 4.6 NE 0.0 0.0
02:15 16.0 14.0 71.4 1021.1 5.0 E 6.4 E 0.0 0.1
02:20 16.1 14.0 71.1 1021.1 2.9 ESE 6.0 E 0.0 0.1
02:25 16.3 14.0 71.6 1021.2 0.1 SSE 1.4 SSE 0.0 0.1
02:30 16.4 14.1 70.7 1021.1 0.4 SE 1.8 SE 0.0 0.1
02:35 16.3 14.0 69.9 1021.1 0.4 ENE 2.5 NE 0.0 0.0
02:40 16.0 13.9 70.7 1021.1 0.9 NE 2.1 NE 0.0 0.1
02:45 16.1 13.8 72.9 1021.2 0.0 NNE 0.0 NE 0.0 0.0
02:50 16.2 13.7 71.7 1021.2 0.0 NNE 0.0 NNE 0.0 0.1
02:55 16.1 13.7 72.7 1021.3 0.5 ENE 2.5 ESE 0.0 0.1
03:00 16.0 13.6 73.1 1021.3 2.8 NE 4.2 NNE 0.0 0.0
03:05 16.1 13.6 73.2 1021.3 2.8 NE 4.2 NE 0.0 0.1
Màxima 17.4 15.1 74.1 1021.3 5.0 E 7.1 ENE 0.0 0.1
Mínima 16.0 13.6 63.0 1021.1
Total 0.0